sensor_id;sensor_type;location;lat;lon;timestamp;temperature;humidity
21672;DHT22;10997;52.242;8.168;2023-04-24T00:01:11;10.90;99.90
21672;DHT22;10997;52.242;8.168;2023-04-24T00:06:13;11.00;99.90
21672;DHT22;10997;52.242;8.168;2023-04-24T00:11:14;11.00;99.90
21672;DHT22;10997;52.242;8.168;2023-04-24T00:16:14;11.00;99.90
21672;DHT22;10997;52.242;8.168;2023-04-24T00:21:15;11.00;99.90
21672;DHT22;10997;52.242;8.168;2023-04-24T00:26:17;11.00;99.90
21672;DHT22;10997;52.242;8.168;2023-04-24T00:31:18;11.00;99.90
21672;DHT22;10997;52.242;8.168;2023-04-24T00:36:19;11.00;99.90
21672;DHT22;10997;52.242;8.168;2023-04-24T00:41:21;10.90;99.90
21672;DHT22;10997;52.242;8.168;2023-04-24T00:46:22;10.90;99.90
21672;DHT22;10997;52.242;8.168;2023-04-24T00:51:22;10.90;99.90
21672;DHT22;10997;52.242;8.168;2023-04-24T00:56:25;10.90;99.90
21672;DHT22;10997;52.242;8.168;2023-04-24T01:01:25;10.90;99.90
21672;DHT22;10997;52.242;8.168;2023-04-24T01:06:28;10.90;99.90
21672;DHT22;10997;52.242;8.168;2023-04-24T01:11:31;10.90;99.90
21672;DHT22;10997;52.242;8.168;2023-04-24T01:16:31;10.90;99.90
21672;DHT22;10997;52.242;8.168;2023-04-24T01:21:36;10.90;99.90
21672;DHT22;10997;52.242;8.168;2023-04-24T01:26:37;10.90;99.90
21672;DHT22;10997;52.242;8.168;2023-04-24T01:31:39;10.80;99.90
21672;DHT22;10997;52.242;8.168;2023-04-24T01:36:41;10.90;99.90
21672;DHT22;10997;52.242;8.168;2023-04-24T01:41:43;10.90;99.90
21672;DHT22;10997;52.242;8.168;2023-04-24T01:46:43;10.90;99.90
21672;DHT22;10997;52.242;8.168;2023-04-24T01:51:45;11.00;99.90
21672;DHT22;10997;52.242;8.168;2023-04-24T01:56:46;10.90;99.90
21672;DHT22;10997;52.242;8.168;2023-04-24T02:01:46;10.90;99.90
21672;DHT22;10997;52.242;8.168;2023-04-24T02:06:47;10.80;99.90
21672;DHT22;10997;52.242;8.168;2023-04-24T02:11:48;10.80;99.90
21672;DHT22;10997;52.242;8.168;2023-04-24T02:16:48;10.80;99.90
21672;DHT22;10997;52.242;8.168;2023-04-24T02:21:49;10.80;99.90
21672;DHT22;10997;52.242;8.168;2023-04-24T02:26:49;10.80;99.90
21672;DHT22;10997;52.242;8.168;2023-04-24T02:31:50;10.80;99.90
21672;DHT22;10997;52.242;8.168;2023-04-24T02:36:50;10.80;99.90
21672;DHT22;10997;52.242;8.168;2023-04-24T02:41:51;10.70;99.90
21672;DHT22;10997;52.242;8.168;2023-04-24T02:46:52;10.70;99.90
21672;DHT22;10997;52.242;8.168;2023-04-24T02:51:52;10.70;99.90
21672;DHT22;10997;52.242;8.168;2023-04-24T02:56:53;10.70;99.90
21672;DHT22;10997;52.242;8.168;2023-04-24T03:01:53;10.60;99.90
21672;DHT22;10997;52.242;8.168;2023-04-24T03:06:54;10.40;99.90
21672;DHT22;10997;52.242;8.168;2023-04-24T03:11:55;10.20;99.90
21672;DHT22;10997;52.242;8.168;2023-04-24T03:16:55;10.10;99.90
21672;DHT22;10997;52.242;8.168;2023-04-24T03:21:56;10.00;99.90
21672;DHT22;10997;52.242;8.168;2023-04-24T03:26:57;9.80;99.90
21672;DHT22;10997;52.242;8.168;2023-04-24T03:31:58;9.70;99.90
21672;DHT22;10997;52.242;8.168;2023-04-24T03:36:58;9.50;99.90
21672;DHT22;10997;52.242;8.168;2023-04-24T03:41:59;9.50;99.90
21672;DHT22;10997;52.242;8.168;2023-04-24T03:47:00;9.40;99.90
21672;DHT22;10997;52.242;8.168;2023-04-24T03:52:01;9.40;99.90
21672;DHT22;10997;52.242;8.168;2023-04-24T03:57:01;9.40;99.90
21672;DHT22;10997;52.242;8.168;2023-04-24T04:02:03;9.40;99.90
21672;DHT22;10997;52.242;8.168;2023-04-24T04:07:04;9.40;99.90
21672;DHT22;10997;52.242;8.168;2023-04-24T04:12:05;9.30;99.90
21672;DHT22;10997;52.242;8.168;2023-04-24T04:17:06;9.30;99.90
21672;DHT22;10997;52.242;8.168;2023-04-24T04:22:06;9.20;99.90
21672;DHT22;10997;52.242;8.168;2023-04-24T04:27:11;9.20;99.90
21672;DHT22;10997;52.242;8.168;2023-04-24T04:32:12;9.20;99.90
21672;DHT22;10997;52.242;8.168;2023-04-24T04:37:13;9.30;99.90
21672;DHT22;10997;52.242;8.168;2023-04-24T04:42:14;9.30;99.90
21672;DHT22;10997;52.242;8.168;2023-04-24T04:47:16;9.40;99.90
21672;DHT22;10997;52.242;8.168;2023-04-24T04:52:18;9.50;99.90
21672;DHT22;10997;52.242;8.168;2023-04-24T04:57:19;9.50;99.90
21672;DHT22;10997;52.242;8.168;2023-04-24T05:02:20;9.50;99.90
21672;DHT22;10997;52.242;8.168;2023-04-24T05:07:21;9.50;99.90
21672;DHT22;10997;52.242;8.168;2023-04-24T05:12:21;9.50;99.90
21672;DHT22;10997;52.242;8.168;2023-04-24T05:17:22;9.60;99.90
21672;DHT22;10997;52.242;8.168;2023-04-24T05:22:23;9.60;99.90
21672;DHT22;10997;52.242;8.168;2023-04-24T05:27:24;9.50;99.90
21672;DHT22;10997;52.242;8.168;2023-04-24T05:32:25;9.60;99.90
21672;DHT22;10997;52.242;8.168;2023-04-24T05:37:27;9.70;99.90
21672;DHT22;10997;52.242;8.168;2023-04-24T05:42:27;9.70;99.90
21672;DHT22;10997;52.242;8.168;2023-04-24T05:47:28;9.60;99.90
21672;DHT22;10997;52.242;8.168;2023-04-24T05:52:29;9.70;99.90
21672;DHT22;10997;52.242;8.168;2023-04-24T05:57:29;9.70;99.90
21672;DHT22;10997;52.242;8.168;2023-04-24T06:02:30;9.60;99.90
21672;DHT22;10997;52.242;8.168;2023-04-24T06:07:32;9.70;99.90
21672;DHT22;10997;52.242;8.168;2023-04-24T06:12:33;9.80;99.90
21672;DHT22;10997;52.242;8.168;2023-04-24T06:17:33;9.90;99.90
21672;DHT22;10997;52.242;8.168;2023-04-24T06:22:34;9.80;99.90
21672;DHT22;10997;52.242;8.168;2023-04-24T06:27:35;9.80;99.90
21672;DHT22;10997;52.242;8.168;2023-04-24T06:32:36;9.90;99.90
21672;DHT22;10997;52.242;8.168;2023-04-24T06:37:36;10.00;99.90
21672;DHT22;10997;52.242;8.168;2023-04-24T06:42:37;10.00;99.90
21672;DHT22;10997;52.242;8.168;2023-04-24T06:47:38;10.20;99.90
21672;DHT22;10997;52.242;8.168;2023-04-24T06:52:40;10.20;99.90
21672;DHT22;10997;52.242;8.168;2023-04-24T06:57:40;10.20;99.90
21672;DHT22;10997;52.242;8.168;2023-04-24T07:02:41;10.20;99.90
21672;DHT22;10997;52.242;8.168;2023-04-24T07:07:41;10.10;99.90
21672;DHT22;10997;52.242;8.168;2023-04-24T07:12:43;10.00;99.90
21672;DHT22;10997;52.242;8.168;2023-04-24T07:17:43;9.90;99.90
21672;DHT22;10997;52.242;8.168;2023-04-24T07:22:44;9.90;99.90
21672;DHT22;10997;52.242;8.168;2023-04-24T07:27:45;9.80;99.90
21672;DHT22;10997;52.242;8.168;2023-04-24T07:32:45;9.80;99.90
21672;DHT22;10997;52.242;8.168;2023-04-24T07:37:47;9.90;99.90
21672;DHT22;10997;52.242;8.168;2023-04-24T07:42:48;9.80;99.90
21672;DHT22;10997;52.242;8.168;2023-04-24T07:47:50;9.80;99.90
21672;DHT22;10997;52.242;8.168;2023-04-24T07:52:50;9.80;99.90
21672;DHT22;10997;52.242;8.168;2023-04-24T07:57:51;9.70;99.90
21672;DHT22;10997;52.242;8.168;2023-04-24T08:02:52;9.70;99.90
21672;DHT22;10997;52.242;8.168;2023-04-24T08:07:52;9.80;99.90
21672;DHT22;10997;52.242;8.168;2023-04-24T08:12:53;10.00;99.90
21672;DHT22;10997;52.242;8.168;2023-04-24T08:17:55;10.20;99.90
21672;DHT22;10997;52.242;8.168;2023-04-24T08:22:55;10.20;99.90
21672;DHT22;10997;52.242;8.168;2023-04-24T08:27:56;10.10;99.90
21672;DHT22;10997;52.242;8.168;2023-04-24T08:32:57;10.30;99.90
21672;DHT22;10997;52.242;8.168;2023-04-24T08:37:58;10.20;99.90
21672;DHT22;10997;52.242;8.168;2023-04-24T08:42:59;10.30;99.90
21672;DHT22;10997;52.242;8.168;2023-04-24T08:48:01;10.30;99.90
21672;DHT22;10997;52.242;8.168;2023-04-24T08:53:02;10.30;99.90
21672;DHT22;10997;52.242;8.168;2023-04-24T08:58:04;10.20;99.90
21672;DHT22;10997;52.242;8.168;2023-04-24T09:03:06;10.10;99.90
21672;DHT22;10997;52.242;8.168;2023-04-24T09:08:08;10.20;99.90
21672;DHT22;10997;52.242;8.168;2023-04-24T09:13:09;10.10;99.90
21672;DHT22;10997;52.242;8.168;2023-04-24T09:18:10;10.10;99.90
21672;DHT22;10997;52.242;8.168;2023-04-24T09:23:11;10.10;99.90
21672;DHT22;10997;52.242;8.168;2023-04-24T09:28:16;10.10;99.90
21672;DHT22;10997;52.242;8.168;2023-04-24T09:33:17;10.10;99.90
21672;DHT22;10997;52.242;8.168;2023-04-24T09:38:17;10.10;99.90
21672;DHT22;10997;52.242;8.168;2023-04-24T09:43:18;10.00;99.90
21672;DHT22;10997;52.242;8.168;2023-04-24T09:48:19;9.90;99.90
21672;DHT22;10997;52.242;8.168;2023-04-24T09:53:24;9.70;99.90
21672;DHT22;10997;52.242;8.168;2023-04-24T09:58:25;9.70;99.90
21672;DHT22;10997;52.242;8.168;2023-04-24T10:03:33;9.60;99.90
21672;DHT22;10997;52.242;8.168;2023-04-24T10:08:35;9.60;99.90
21672;DHT22;10997;52.242;8.168;2023-04-24T10:13:37;9.60;99.90
21672;DHT22;10997;52.242;8.168;2023-04-24T10:18:39;9.60;99.90
21672;DHT22;10997;52.242;8.168;2023-04-24T10:23:41;9.70;99.90
21672;DHT22;10997;52.242;8.168;2023-04-24T10:28:44;10.00;99.90
21672;DHT22;10997;52.242;8.168;2023-04-24T10:33:45;10.00;99.90
21672;DHT22;10997;52.242;8.168;2023-04-24T10:38:46;10.20;99.90
21672;DHT22;10997;52.242;8.168;2023-04-24T10:49:05;10.10;99.90
21672;DHT22;10997;52.242;8.168;2023-04-24T10:54:28;10.10;99.90
21672;DHT22;10997;52.242;8.168;2023-04-24T10:59:35;9.80;99.90
21672;DHT22;10997;52.242;8.168;2023-04-24T11:04:35;9.60;99.90
21672;DHT22;10997;52.242;8.168;2023-04-24T11:09:37;9.40;99.90
21672;DHT22;10997;52.242;8.168;2023-04-24T11:20:07;9.10;99.90
21672;DHT22;10997;52.242;8.168;2023-04-24T11:25:09;9.00;99.90
21672;DHT22;10997;52.242;8.168;2023-04-24T11:30:12;8.80;99.90
21672;DHT22;10997;52.242;8.168;2023-04-24T11:35:18;8.70;99.90
21672;DHT22;10997;52.242;8.168;2023-04-24T11:40:20;8.60;99.90
21672;DHT22;10997;52.242;8.168;2023-04-24T11:45:24;8.60;99.90
21672;DHT22;10997;52.242;8.168;2023-04-24T11:50:26;8.50;99.90
21672;DHT22;10997;52.242;8.168;2023-04-24T11:55:28;8.60;99.90
21672;DHT22;10997;52.242;8.168;2023-04-24T12:00:31;8.70;99.90
21672;DHT22;10997;52.242;8.168;2023-04-24T12:05:37;8.70;99.90
21672;DHT22;10997;52.242;8.168;2023-04-24T12:10:38;8.70;99.90
21672;DHT22;10997;52.242;8.168;2023-04-24T12:15:40;8.60;99.90
21672;DHT22;10997;52.242;8.168;2023-04-24T12:20:40;8.70;99.90
21672;DHT22;10997;52.242;8.168;2023-04-24T12:25:41;8.80;99.90
21672;DHT22;10997;52.242;8.168;2023-04-24T12:30:48;8.90;99.90
21672;DHT22;10997;52.242;8.168;2023-04-24T12:35:52;8.90;99.90
21672;DHT22;10997;52.242;8.168;2023-04-24T12:41:06;8.80;99.90
21672;DHT22;10997;52.242;8.168;2023-04-24T12:46:06;8.50;99.90
21672;DHT22;10997;52.242;8.168;2023-04-24T12:51:07;8.40;99.90
21672;DHT22;10997;52.242;8.168;2023-04-24T12:56:08;8.30;99.90
21672;DHT22;10997;52.242;8.168;2023-04-24T13:01:08;8.40;99.90
21672;DHT22;10997;52.242;8.168;2023-04-24T13:06:09;8.50;99.90
21672;DHT22;10997;52.242;8.168;2023-04-24T13:11:10;8.60;99.90
21672;DHT22;10997;52.242;8.168;2023-04-24T13:16:10;8.60;99.90
21672;DHT22;10997;52.242;8.168;2023-04-24T13:21:11;8.50;99.90
21672;DHT22;10997;52.242;8.168;2023-04-24T13:26:12;8.40;99.90
21672;DHT22;10997;52.242;8.168;2023-04-24T13:31:12;8.40;99.90
21672;DHT22;10997;52.242;8.168;2023-04-24T13:36:14;8.50;99.90
21672;DHT22;10997;52.242;8.168;2023-04-24T13:41:14;8.50;99.90
21672;DHT22;10997;52.242;8.168;2023-04-24T13:46:16;8.60;99.90
21672;DHT22;10997;52.242;8.168;2023-04-24T13:51:16;9.00;99.90
21672;DHT22;10997;52.242;8.168;2023-04-24T13:56:17;9.10;99.90
21672;DHT22;10997;52.242;8.168;2023-04-24T14:01:18;9.40;99.90
21672;DHT22;10997;52.242;8.168;2023-04-24T14:06:19;9.30;99.90
21672;DHT22;10997;52.242;8.168;2023-04-24T14:11:20;9.30;99.90
21672;DHT22;10997;52.242;8.168;2023-04-24T14:16:20;9.20;99.90
21672;DHT22;10997;52.242;8.168;2023-04-24T14:21:21;9.30;99.90
21672;DHT22;10997;52.242;8.168;2023-04-24T14:26:21;9.40;99.90
21672;DHT22;10997;52.242;8.168;2023-04-24T14:31:22;9.30;99.90
21672;DHT22;10997;52.242;8.168;2023-04-24T14:36:23;9.30;99.90
21672;DHT22;10997;52.242;8.168;2023-04-24T14:41:23;9.30;99.90
21672;DHT22;10997;52.242;8.168;2023-04-24T14:46:24;9.20;99.90
21672;DHT22;10997;52.242;8.168;2023-04-24T14:51:25;9.00;99.90
21672;DHT22;10997;52.242;8.168;2023-04-24T14:56:29;8.80;99.90
21672;DHT22;10997;52.242;8.168;2023-04-24T15:01:29;8.80;99.90
21672;DHT22;10997;52.242;8.168;2023-04-24T15:06:30;8.70;99.90
21672;DHT22;10997;52.242;8.168;2023-04-24T15:11:32;8.80;99.90
21672;DHT22;10997;52.242;8.168;2023-04-24T15:16:32;8.90;99.90
21672;DHT22;10997;52.242;8.168;2023-04-24T15:21:33;8.90;99.90
21672;DHT22;10997;52.242;8.168;2023-04-24T15:26:34;8.80;99.90
21672;DHT22;10997;52.242;8.168;2023-04-24T15:31:34;8.70;99.90
21672;DHT22;10997;52.242;8.168;2023-04-24T15:36:39;8.50;99.90
21672;DHT22;10997;52.242;8.168;2023-04-24T15:41:40;8.50;99.90
21672;DHT22;10997;52.242;8.168;2023-04-24T15:46:41;8.60;99.90
21672;DHT22;10997;52.242;8.168;2023-04-24T15:51:41;8.70;99.90
21672;DHT22;10997;52.242;8.168;2023-04-24T15:56:42;8.70;99.90
21672;DHT22;10997;52.242;8.168;2023-04-24T16:01:44;8.80;99.90
21672;DHT22;10997;52.242;8.168;2023-04-24T16:06:45;8.80;99.90
21672;DHT22;10997;52.242;8.168;2023-04-24T16:11:46;8.90;99.90
21672;DHT22;10997;52.242;8.168;2023-04-24T16:16:46;8.90;99.90
21672;DHT22;10997;52.242;8.168;2023-04-24T16:21:47;9.00;99.90
21672;DHT22;10997;52.242;8.168;2023-04-24T16:26:51;8.90;99.90
21672;DHT22;10997;52.242;8.168;2023-04-24T16:31:53;8.70;99.90
21672;DHT22;10997;52.242;8.168;2023-04-24T16:36:54;8.60;99.90
21672;DHT22;10997;52.242;8.168;2023-04-24T16:41:55;8.60;99.90
21672;DHT22;10997;52.242;8.168;2023-04-24T16:46:57;8.70;99.90
21672;DHT22;10997;52.242;8.168;2023-04-24T16:51:58;8.70;99.90
21672;DHT22;10997;52.242;8.168;2023-04-24T16:56:58;8.80;99.90
21672;DHT22;10997;52.242;8.168;2023-04-24T17:02:00;8.90;99.90
21672;DHT22;10997;52.242;8.168;2023-04-24T17:07:01;9.30;99.90
21672;DHT22;10997;52.242;8.168;2023-04-24T17:12:03;9.20;99.90
21672;DHT22;10997;52.242;8.168;2023-04-24T17:17:03;9.30;99.90
21672;DHT22;10997;52.242;8.168;2023-04-24T17:22:04;9.20;99.90
21672;DHT22;10997;52.242;8.168;2023-04-24T17:27:05;9.30;99.90
21672;DHT22;10997;52.242;8.168;2023-04-24T17:32:05;9.10;99.90
21672;DHT22;10997;52.242;8.168;2023-04-24T17:37:06;9.10;99.90
21672;DHT22;10997;52.242;8.168;2023-04-24T17:42:07;9.00;99.90
21672;DHT22;10997;52.242;8.168;2023-04-24T17:47:07;8.90;99.90
21672;DHT22;10997;52.242;8.168;2023-04-24T17:52:08;8.90;99.90
21672;DHT22;10997;52.242;8.168;2023-04-24T17:57:09;8.80;99.90
21672;DHT22;10997;52.242;8.168;2023-04-24T18:02:10;8.80;99.90
21672;DHT22;10997;52.242;8.168;2023-04-24T18:07:10;8.70;99.90
21672;DHT22;10997;52.242;8.168;2023-04-24T18:12:11;8.60;99.90
21672;DHT22;10997;52.242;8.168;2023-04-24T18:17:12;8.50;99.90
21672;DHT22;10997;52.242;8.168;2023-04-24T18:22:12;8.50;99.90
21672;DHT22;10997;52.242;8.168;2023-04-24T18:27:13;8.50;99.90
21672;DHT22;10997;52.242;8.168;2023-04-24T18:32:13;8.50;99.90
21672;DHT22;10997;52.242;8.168;2023-04-24T18:37:14;8.40;99.90
21672;DHT22;10997;52.242;8.168;2023-04-24T18:42:16;8.20;99.90
21672;DHT22;10997;52.242;8.168;2023-04-24T18:47:16;8.20;99.90
21672;DHT22;10997;52.242;8.168;2023-04-24T18:52:17;8.10;99.90
21672;DHT22;10997;52.242;8.168;2023-04-24T18:57:18;8.10;99.90
21672;DHT22;10997;52.242;8.168;2023-04-24T19:02:28;8.00;99.90
21672;DHT22;10997;52.242;8.168;2023-04-24T19:07:29;7.90;99.90
21672;DHT22;10997;52.242;8.168;2023-04-24T19:12:30;8.00;99.90
21672;DHT22;10997;52.242;8.168;2023-04-24T19:17:30;8.00;99.90
21672;DHT22;10997;52.242;8.168;2023-04-24T19:22:31;7.90;99.90
21672;DHT22;10997;52.242;8.168;2023-04-24T19:27:32;7.90;99.90
21672;DHT22;10997;52.242;8.168;2023-04-24T19:32:32;8.00;99.90
21672;DHT22;10997;52.242;8.168;2023-04-24T19:37:33;8.00;99.90
21672;DHT22;10997;52.242;8.168;2023-04-24T19:42:34;8.00;99.90
21672;DHT22;10997;52.242;8.168;2023-04-24T19:47:35;8.00;99.90
21672;DHT22;10997;52.242;8.168;2023-04-24T19:52:35;8.00;99.90
21672;DHT22;10997;52.242;8.168;2023-04-24T19:57:36;7.90;99.90
21672;DHT22;10997;52.242;8.168;2023-04-24T20:02:37;7.90;99.90
21672;DHT22;10997;52.242;8.168;2023-04-24T20:07:38;7.90;99.90
21672;DHT22;10997;52.242;8.168;2023-04-24T20:12:38;7.80;99.90
21672;DHT22;10997;52.242;8.168;2023-04-24T20:17:39;7.70;99.90
21672;DHT22;10997;52.242;8.168;2023-04-24T20:22:40;7.70;99.90
21672;DHT22;10997;52.242;8.168;2023-04-24T20:27:40;7.70;99.90
21672;DHT22;10997;52.242;8.168;2023-04-24T20:32:42;7.70;99.90
21672;DHT22;10997;52.242;8.168;2023-04-24T20:37:42;7.80;99.90
21672;DHT22;10997;52.242;8.168;2023-04-24T20:42:43;7.70;99.90
21672;DHT22;10997;52.242;8.168;2023-04-24T20:47:45;7.70;99.90
21672;DHT22;10997;52.242;8.168;2023-04-24T20:52:46;7.70;99.90
21672;DHT22;10997;52.242;8.168;2023-04-24T20:57:47;7.60;99.90
21672;DHT22;10997;52.242;8.168;2023-04-24T21:02:47;7.60;99.90
21672;DHT22;10997;52.242;8.168;2023-04-24T21:07:48;7.60;99.90
21672;DHT22;10997;52.242;8.168;2023-04-24T21:12:51;7.50;99.90
21672;DHT22;10997;52.242;8.168;2023-04-24T21:17:52;7.50;99.90
21672;DHT22;10997;52.242;8.168;2023-04-24T21:22:52;7.40;99.90
21672;DHT22;10997;52.242;8.168;2023-04-24T21:27:53;7.40;99.90
21672;DHT22;10997;52.242;8.168;2023-04-24T21:32:54;7.40;99.90
21672;DHT22;10997;52.242;8.168;2023-04-24T21:37:55;7.40;99.90
21672;DHT22;10997;52.242;8.168;2023-04-24T21:42:56;7.40;99.90
21672;DHT22;10997;52.242;8.168;2023-04-24T21:47:56;7.40;99.90
21672;DHT22;10997;52.242;8.168;2023-04-24T21:52:58;7.40;99.90
21672;DHT22;10997;52.242;8.168;2023-04-24T21:57:59;7.40;99.90
21672;DHT22;10997;52.242;8.168;2023-04-24T22:03:00;7.40;99.90
21672;DHT22;10997;52.242;8.168;2023-04-24T22:08:00;7.40;99.90
21672;DHT22;10997;52.242;8.168;2023-04-24T22:13:01;7.40;99.90
21672;DHT22;10997;52.242;8.168;2023-04-24T22:18:02;7.30;99.90
21672;DHT22;10997;52.242;8.168;2023-04-24T22:23:04;7.30;99.90
21672;DHT22;10997;52.242;8.168;2023-04-24T22:28:05;7.20;99.90
21672;DHT22;10997;52.242;8.168;2023-04-24T22:33:06;7.10;99.90
21672;DHT22;10997;52.242;8.168;2023-04-24T22:38:06;7.00;99.90
21672;DHT22;10997;52.242;8.168;2023-04-24T22:43:07;7.00;99.90
21672;DHT22;10997;52.242;8.168;2023-04-24T22:48:08;7.00;99.90
21672;DHT22;10997;52.242;8.168;2023-04-24T22:53:08;7.00;99.90
21672;DHT22;10997;52.242;8.168;2023-04-24T22:58:09;6.90;99.90
21672;DHT22;10997;52.242;8.168;2023-04-24T23:03:10;7.00;99.90
21672;DHT22;10997;52.242;8.168;2023-04-24T23:08:11;7.00;99.90
21672;DHT22;10997;52.242;8.168;2023-04-24T23:13:11;7.00;99.90
21672;DHT22;10997;52.242;8.168;2023-04-24T23:18:12;6.90;99.90
21672;DHT22;10997;52.242;8.168;2023-04-24T23:23:12;6.80;99.90
21672;DHT22;10997;52.242;8.168;2023-04-24T23:28:15;6.80;99.90
21672;DHT22;10997;52.242;8.168;2023-04-24T23:33:15;6.80;99.90
21672;DHT22;10997;52.242;8.168;2023-04-24T23:38:16;6.80;99.90
21672;DHT22;10997;52.242;8.168;2023-04-24T23:43:17;6.80;99.90
21672;DHT22;10997;52.242;8.168;2023-04-24T23:48:17;6.80;99.90
21672;DHT22;10997;52.242;8.168;2023-04-24T23:53:18;6.80;99.90
21672;DHT22;10997;52.242;8.168;2023-04-24T23:58:18;6.70;99.90
